createdAt,value
2019-05-15T00:00:08.920Z,71.83
2019-05-15T00:02:38.856Z,72.26
2019-05-15T00:05:08.974Z,72.02
2019-05-15T00:07:39.179Z,71.53
2019-05-15T00:10:08.976Z,71.73
2019-05-15T00:12:39.581Z,72.10
2019-05-15T00:15:09.281Z,72.86
2019-05-15T00:17:39.404Z,73.34
2019-05-15T00:20:09.863Z,73.65
2019-05-15T00:22:39.103Z,72.54
2019-05-15T00:25:09.366Z,74.35
2019-05-15T00:27:40.634Z,73.92
2019-05-15T00:30:09.946Z,74.61
2019-05-15T00:32:39.307Z,75.19
2019-05-15T00:35:09.355Z,75.57
2019-05-15T00:37:38.848Z,75.40
2019-05-15T00:40:08.763Z,75.51
2019-05-15T00:42:38.597Z,76.89
2019-05-15T00:45:09.564Z,77.88
2019-05-15T00:47:39.748Z,78.12
2019-05-15T00:50:09.450Z,78.68
2019-05-15T00:52:39.282Z,78.66
2019-05-15T00:55:09.084Z,78.93
2019-05-15T00:57:39.327Z,79.60
2019-05-15T01:00:09.112Z,79.51
2019-05-15T01:02:38.931Z,80.23
2019-05-15T01:05:08.559Z,80.42
2019-05-15T01:07:39.269Z,80.46
2019-05-15T01:10:09.777Z,81.08
2019-05-15T01:12:40.974Z,81.59
2019-05-15T01:15:09.787Z,81.28
2019-05-15T01:17:38.994Z,81.62
2019-05-15T01:20:08.741Z,81.80
2019-05-15T01:22:39.297Z,82.35
2019-05-15T01:25:08.610Z,82.60
2019-05-15T01:27:38.564Z,82.89
2019-05-15T01:30:09.182Z,83.18
2019-05-15T01:32:39.585Z,84.19
2019-05-15T01:35:09.748Z,84.03
2019-05-15T01:37:39.058Z,83.61
2019-05-15T01:40:09.046Z,83.19
2019-05-15T01:42:38.962Z,84.87
2019-05-15T01:45:08.882Z,85.01
2019-05-15T01:47:38.949Z,85.48
2019-05-15T01:50:09.144Z,85.39
2019-05-15T01:52:38.930Z,85.41
2019-05-15T01:55:09.175Z,86.62
2019-05-15T01:57:38.530Z,87.10
2019-05-15T02:00:08.963Z,87.31
2019-05-15T02:02:39.008Z,88.04
2019-05-15T02:05:09.039Z,87.75
2019-05-15T02:07:39.184Z,87.92
2019-05-15T02:10:09.227Z,87.56
2019-05-15T02:12:39.082Z,87.81
2019-05-15T02:15:09.577Z,87.84
2019-05-15T02:17:39.300Z,88.47
2019-05-15T02:20:08.685Z,89.33
2019-05-15T02:22:42.357Z,89.75
2019-05-15T02:25:09.119Z,89.51
2019-05-15T02:27:39.201Z,90.06
2019-05-15T02:30:22.120Z,89.91
2019-05-15T02:32:40.138Z,90.90
2019-05-15T02:35:09.962Z,91.56
2019-05-15T02:37:41.006Z,91.82
2019-05-15T02:40:10.503Z,93.37
2019-05-15T02:42:40.382Z,93.85
2019-05-15T02:45:10.548Z,93.54
2019-05-15T02:47:40.013Z,95.01
2019-05-15T02:50:10.759Z,95.79
2019-05-15T02:52:44.549Z,94.75
2019-05-15T02:55:09.793Z,95.66
2019-05-15T02:57:39.595Z,95.95
2019-05-15T03:00:10.883Z,95.59
2019-05-15T03:02:41.220Z,95.74
2019-05-15T03:05:09.752Z,95.86
2019-05-15T03:07:40.353Z,96.85
2019-05-15T03:10:09.916Z,97.36
2019-05-15T03:12:40.805Z,96.75
2019-05-15T03:15:09.872Z,97.29
2019-05-15T03:17:40.216Z,97.55
2019-05-15T03:20:10.886Z,97.54
2019-05-15T03:22:40.750Z,98.77
2019-05-15T03:25:10.792Z,98.28
2019-05-15T03:27:39.992Z,98.36
2019-05-15T03:30:13.822Z,98.89
2019-05-15T03:32:46.526Z,99.73
2019-05-15T03:35:14.663Z,99.88
2019-05-15T03:37:40.498Z,99.52
2019-05-15T03:40:10.332Z,99.34
2019-05-15T03:42:39.813Z,100.00
2019-05-15T03:45:10.638Z,99.41
2019-05-15T03:47:40.686Z,100.00
2019-05-15T03:50:10.459Z,99.94
2019-05-15T03:52:39.876Z,100.00
2019-05-15T03:55:10.733Z,100.00
2019-05-15T03:57:40.289Z,100.00
2019-05-15T04:00:10.192Z,100.00
2019-05-15T04:02:39.706Z,100.00
2019-05-15T04:05:11.861Z,99.32
2019-05-15T04:07:39.895Z,98.96
2019-05-15T04:10:10.114Z,99.22
2019-05-15T04:12:40.646Z,98.89
2019-05-15T04:15:10.555Z,98.55
2019-05-15T04:17:40.337Z,97.60
2019-05-15T04:20:10.055Z,97.61
2019-05-15T04:22:39.940Z,96.59
2019-05-15T04:25:10.009Z,95.73
2019-05-15T04:27:41.519Z,94.18
2019-05-15T04:30:11.111Z,94.72
2019-05-15T04:32:40.557Z,93.21
2019-05-15T04:35:10.242Z,92.17
2019-05-15T04:37:40.551Z,91.97
2019-05-15T04:40:10.086Z,91.65
2019-05-15T04:42:39.740Z,89.93
2019-05-15T04:45:10.833Z,91.32
2019-05-15T04:47:40.133Z,91.60
2019-05-15T04:50:09.862Z,91.84
2019-05-15T04:52:39.351Z,92.45
2019-05-15T04:55:10.078Z,91.27
2019-05-15T04:57:40.095Z,89.60
2019-05-15T05:00:10.159Z,91.43
2019-05-15T05:02:39.913Z,90.20
2019-05-15T05:05:10.433Z,89.75
2019-05-15T05:07:39.829Z,89.24
2019-05-15T05:10:09.844Z,88.22
2019-05-15T05:12:41.610Z,87.48
2019-05-15T05:15:08.802Z,88.37
2019-05-15T05:17:39.103Z,87.99
2019-05-15T05:20:08.209Z,88.24
2019-05-15T05:22:39.232Z,87.72
2019-05-15T05:25:08.249Z,86.58
2019-05-15T05:27:38.392Z,85.83
2019-05-15T05:30:08.865Z,86.32
2019-05-15T05:32:38.902Z,84.48
2019-05-15T05:35:08.580Z,84.91
2019-05-15T05:37:39.011Z,83.95
2019-05-15T05:40:08.570Z,84.51
2019-05-15T05:42:38.901Z,83.83
2019-05-15T05:45:09.268Z,83.64
2019-05-15T05:47:38.972Z,82.98
2019-05-15T05:50:08.707Z,80.52
2019-05-15T05:52:39.063Z,81.70
2019-05-15T05:55:08.965Z,80.96
2019-05-15T05:57:38.244Z,82.52
2019-05-15T06:00:09.458Z,80.55
2019-05-15T06:02:47.421Z,81.00
2019-05-15T06:05:08.836Z,80.50
2019-05-15T06:07:38.702Z,80.12
2019-05-15T06:10:08.901Z,78.37
2019-05-15T06:12:39.009Z,77.76
2019-05-15T06:15:09.254Z,75.58
2019-05-15T06:17:39.116Z,75.53
2019-05-15T06:20:08.340Z,75.68
2019-05-15T06:22:38.687Z,75.26
2019-05-15T06:25:11.293Z,73.57
2019-05-15T06:27:38.972Z,72.60
2019-05-15T06:30:09.942Z,72.75
2019-05-15T06:32:39.758Z,72.28
2019-05-15T06:35:09.111Z,71.87
2019-05-15T06:37:39.645Z,71.59
2019-05-15T06:40:08.803Z,70.67
2019-05-15T06:42:39.769Z,70.06
2019-05-15T06:45:08.348Z,68.70
2019-05-15T06:47:39.169Z,67.92
2019-05-15T06:50:10.489Z,66.20
2019-05-15T06:52:39.356Z,64.68
2019-05-15T06:55:09.093Z,64.54
2019-05-15T06:57:39.693Z,61.55
2019-05-15T07:00:08.676Z,60.36
2019-05-15T07:02:38.310Z,58.15
2019-05-15T07:05:07.970Z,57.03
2019-05-15T07:07:38.536Z,56.66
2019-05-15T07:10:09.105Z,55.46
2019-05-15T07:12:39.201Z,55.63
2019-05-15T07:15:09.416Z,57.08
2019-05-15T07:17:39.162Z,55.32
2019-05-15T07:20:09.050Z,55.53
2019-05-15T07:22:40.801Z,55.84
2019-05-15T07:25:09.694Z,55.54
2019-05-15T07:27:39.137Z,56.51
2019-05-15T07:30:11.887Z,54.04
2019-05-15T07:32:40.028Z,53.13
2019-05-15T07:35:08.943Z,54.29
2019-05-15T07:37:38.781Z,53.27
2019-05-15T07:40:08.772Z,52.22
2019-05-15T07:42:38.680Z,52.13
2019-05-15T07:45:08.885Z,52.11
2019-05-15T07:47:38.620Z,53.50
2019-05-15T07:50:09.822Z,51.57
2019-05-15T07:52:39.837Z,52.20
2019-05-15T07:55:10.602Z,51.56
2019-05-15T07:57:39.805Z,50.92
2019-05-15T08:00:12.236Z,50.36
2019-05-15T08:02:40.839Z,51.24
2019-05-15T08:05:09.908Z,52.94
2019-05-15T08:07:39.143Z,51.58
2019-05-15T08:10:08.714Z,53.25
2019-05-15T08:12:39.240Z,52.65
2019-05-15T08:15:11.311Z,53.33
2019-05-15T08:17:59.146Z,53.36
2019-05-15T08:20:18.344Z,51.27
2019-05-15T08:22:48.964Z,51.58
2019-05-15T08:25:31.224Z,52.73
2019-05-15T08:27:48.480Z,51.69
2019-05-15T08:30:19.837Z,50.98
2019-05-15T08:32:51.431Z,45.93
2019-05-15T08:35:20.068Z,42.04
2019-05-15T08:37:50.620Z,42.28
2019-05-15T08:40:19.701Z,40.17
2019-05-15T08:42:56.306Z,39.13
2019-05-15T08:45:19.054Z,38.27
2019-05-15T08:47:49.198Z,38.97
2019-05-15T08:50:19.222Z,39.76
2019-05-15T08:52:48.704Z,39.99
2019-05-15T08:55:20.032Z,39.96
2019-05-15T08:57:55.556Z,38.90
2019-05-15T09:00:18.831Z,39.99
2019-05-15T09:02:48.842Z,39.51
2019-05-15T09:05:18.749Z,39.29
2019-05-15T09:07:48.653Z,39.36
2019-05-15T09:10:18.501Z,39.88
2019-05-15T09:12:47.243Z,41.33
2019-05-15T09:15:18.572Z,40.54
2019-05-15T09:17:48.869Z,41.50
2019-05-15T09:20:19.418Z,39.88
2019-05-15T09:22:49.059Z,39.81
2019-05-15T09:25:19.361Z,41.77
2019-05-15T09:27:48.866Z,39.71
2019-05-15T09:30:18.351Z,39.75
2019-05-15T09:32:48.481Z,39.55
2019-05-15T09:35:19.558Z,40.69
2019-05-15T09:37:48.926Z,40.99
2019-05-15T09:40:18.648Z,38.83
2019-05-15T09:42:48.726Z,38.50
2019-05-15T09:45:18.124Z,38.82
2019-05-15T09:47:48.356Z,39.15
2019-05-15T09:50:19.427Z,39.30
2019-05-15T09:52:50.145Z,40.67
2019-05-15T09:55:18.349Z,38.82
2019-05-15T09:57:48.889Z,40.61
2019-05-15T10:00:19.169Z,40.73
2019-05-15T10:02:48.806Z,40.07
2019-05-15T10:05:18.691Z,40.30
2019-05-15T10:07:47.652Z,39.85
2019-05-15T10:10:19.628Z,39.38
2019-05-15T10:12:49.454Z,40.01
2019-05-15T10:15:18.721Z,39.41
2019-05-15T10:17:50.983Z,39.93
2019-05-15T10:20:18.732Z,40.81
2019-05-15T10:22:48.385Z,41.61
2019-05-15T10:25:18.965Z,40.09
2019-05-15T10:27:48.872Z,40.41
2019-05-15T10:30:18.964Z,39.72
2019-05-15T10:32:48.823Z,40.90
2019-05-15T10:35:25.545Z,41.16
2019-05-15T10:37:50.640Z,40.06
2019-05-15T10:40:20.425Z,41.38
2019-05-15T10:42:49.719Z,41.80
2019-05-15T10:45:19.466Z,41.03
2019-05-15T10:47:49.551Z,41.43
2019-05-15T10:50:20.528Z,40.47
2019-05-15T10:52:49.136Z,40.43
2019-05-15T10:55:18.919Z,41.33
2019-05-15T10:57:47.622Z,41.50
2019-05-15T11:00:19.255Z,41.08
2019-05-15T11:02:48.948Z,40.42
2019-05-15T11:05:18.689Z,41.17
2019-05-15T11:07:48.231Z,40.89
2019-05-15T11:10:18.577Z,39.30
2019-05-15T11:12:47.356Z,39.31
2019-05-15T11:15:18.453Z,40.13
2019-05-15T11:17:48.986Z,41.52
2019-05-15T11:20:18.774Z,40.85
2019-05-15T11:22:50.061Z,41.85
2019-05-15T11:25:17.763Z,41.65
2019-05-15T11:27:48.422Z,40.13
2019-05-15T11:30:19.238Z,40.51
2019-05-15T11:32:48.622Z,41.86
2019-05-15T11:35:18.935Z,40.25
2019-05-15T11:37:55.652Z,42.20
2019-05-15T11:40:18.982Z,42.25
2019-05-15T11:42:48.737Z,42.75
2019-05-15T11:45:18.782Z,42.24
2019-05-15T11:47:48.273Z,41.32
2019-05-15T11:50:20.572Z,41.63
2019-05-15T11:52:49.183Z,39.61
2019-05-15T11:55:20.811Z,39.74
2019-05-15T11:57:53.532Z,39.43
2019-05-15T12:00:26.780Z,39.82
2019-05-15T12:02:51.910Z,40.14
2019-05-15T12:05:20.454Z,39.71
2019-05-15T12:07:49.081Z,39.32
2019-05-15T12:10:18.496Z,39.21
2019-05-15T12:12:49.674Z,39.93
2019-05-15T12:15:19.142Z,38.75
2019-05-15T12:17:48.636Z,39.22
2019-05-15T12:20:19.625Z,39.54
2019-05-15T12:22:50.073Z,39.12
2019-05-15T12:25:18.946Z,39.68
2019-05-15T12:27:49.051Z,39.93
2019-05-15T12:30:19.910Z,40.38
2019-05-15T12:32:49.323Z,39.47
2019-05-15T12:35:20.502Z,40.33
2019-05-15T12:37:48.198Z,39.64
2019-05-15T13:00:25.646Z,38.82
2019-05-15T13:02:54.212Z,38.40
2019-05-15T13:05:22.680Z,38.16
2019-05-15T13:07:51.184Z,38.63
2019-05-15T13:10:19.714Z,38.19
2019-05-15T13:12:59.578Z,38.64
2019-05-15T13:15:18.915Z,38.79
2019-05-15T13:17:52.935Z,39.39
2019-05-15T13:20:18.563Z,38.25
2019-05-15T13:25:18.671Z,38.23
2019-05-15T13:27:48.669Z,37.28
2019-05-15T13:30:18.409Z,37.51
2019-05-15T13:32:49.535Z,38.28
2019-05-15T13:35:18.428Z,37.82
2019-05-15T13:37:49.399Z,38.80
2019-05-15T13:40:18.640Z,39.01
2019-05-15T13:42:48.544Z,39.21
2019-05-15T13:45:18.277Z,39.21
2019-05-15T13:47:46.954Z,40.25
2019-05-15T13:50:15.501Z,41.24
2019-05-15T13:52:44.014Z,41.69
2019-05-15T13:55:12.562Z,42.82
2019-05-15T13:57:41.023Z,43.50
2019-05-15T14:00:10.550Z,44.50
2019-05-15T14:02:39.507Z,44.53
2019-05-15T14:05:09.456Z,45.05
2019-05-15T14:07:49.006Z,45.91
2019-05-15T14:10:09.744Z,48.17
2019-05-15T14:12:38.469Z,48.88
2019-05-15T14:15:10.020Z,49.79
2019-05-15T14:17:38.599Z,49.49
2019-05-15T14:20:09.348Z,49.84
2019-05-15T14:22:38.977Z,50.64
2019-05-15T14:25:09.591Z,50.78
2019-05-15T14:27:39.797Z,51.78
2019-05-15T14:30:10.536Z,52.62
2019-05-15T14:32:41.467Z,52.74
2019-05-15T14:35:10.041Z,53.19
2019-05-15T14:37:38.631Z,52.07
2019-05-15T14:40:09.260Z,52.57
2019-05-15T14:42:39.404Z,52.88
2019-05-15T14:45:09.057Z,52.66
2019-05-15T14:47:38.846Z,51.67
2019-05-15T14:50:09.992Z,52.31
2019-05-15T14:52:39.066Z,52.25
2019-05-15T14:55:08.356Z,52.95
2019-05-15T14:57:39.216Z,52.99
2019-05-15T15:00:09.195Z,52.37
2019-05-15T15:02:38.917Z,52.42
2019-05-15T15:05:09.538Z,52.03
2019-05-15T15:07:38.775Z,51.94
2019-05-15T15:10:08.361Z,51.82
2019-05-15T15:12:39.692Z,51.76
2019-05-15T15:15:09.777Z,51.81
2019-05-15T15:17:38.726Z,52.18
2019-05-15T15:20:10.686Z,52.68
2019-05-15T15:22:39.801Z,52.64
2019-05-15T15:25:09.791Z,52.78
2019-05-15T15:27:39.656Z,52.05
2019-05-15T15:30:09.724Z,53.04
2019-05-15T15:32:38.801Z,52.63
2019-05-15T15:35:08.824Z,52.66
2019-05-15T15:37:38.421Z,53.84
2019-05-15T15:40:08.606Z,53.42
2019-05-15T15:42:39.433Z,53.54
2019-05-15T15:45:10.585Z,54.13
2019-05-15T15:47:39.262Z,54.89
2019-05-15T15:50:09.484Z,53.18
2019-05-15T15:52:38.978Z,52.74
2019-05-15T15:55:09.075Z,51.81
2019-05-15T15:57:39.690Z,52.29
2019-05-15T16:00:09.869Z,52.39
2019-05-15T16:02:40.966Z,52.53
2019-05-15T16:05:10.605Z,51.83
2019-05-15T16:07:39.435Z,52.73
2019-05-15T16:10:08.710Z,52.17
2019-05-15T16:12:38.794Z,50.71
2019-05-15T16:15:08.951Z,51.41
2019-05-15T16:17:38.660Z,50.52
2019-05-15T16:20:09.109Z,54.59
2019-05-15T16:22:38.350Z,54.57
2019-05-15T16:25:10.458Z,53.52
2019-05-15T16:27:38.990Z,52.05
2019-05-15T16:30:08.666Z,52.84
2019-05-15T16:32:39.035Z,51.34
2019-05-15T16:35:10.195Z,51.33
2019-05-15T16:37:39.318Z,53.50
2019-05-15T16:40:09.304Z,52.04
2019-05-15T16:42:38.406Z,53.67
2019-05-15T16:45:10.439Z,52.25
2019-05-15T16:47:40.233Z,53.09
2019-05-15T16:50:10.625Z,53.81
2019-05-15T16:52:39.255Z,53.25
2019-05-15T16:55:10.063Z,54.14
2019-05-15T16:57:39.068Z,54.24
2019-05-15T17:00:10.116Z,53.72
2019-05-15T17:02:39.643Z,55.02
2019-05-15T17:05:09.587Z,54.48
2019-05-15T17:07:39.019Z,55.51
2019-05-15T17:10:08.511Z,55.56
2019-05-15T17:12:39.242Z,55.41
2019-05-15T17:15:09.457Z,56.11
2019-05-15T17:17:38.701Z,56.69
2019-05-15T17:20:09.736Z,57.20
2019-05-15T17:22:38.564Z,57.51
2019-05-15T17:25:09.395Z,58.35
2019-05-15T17:27:37.416Z,59.40
2019-05-15T17:30:08.964Z,59.45
2019-05-15T17:32:38.802Z,60.00
2019-05-15T17:35:09.761Z,60.67
2019-05-15T17:37:38.078Z,59.11
2019-05-15T17:40:07.656Z,60.91
2019-05-15T17:42:38.961Z,60.84
2019-05-15T17:45:10.563Z,60.41
2019-05-15T17:47:41.422Z,60.64
2019-05-15T17:50:10.532Z,61.23
2019-05-15T17:52:39.249Z,61.84
2019-05-15T17:55:11.177Z,62.45
2019-05-15T17:57:42.455Z,61.38
2019-05-15T18:00:12.707Z,62.89
2019-05-15T18:02:41.559Z,63.07
2019-05-15T18:05:10.627Z,62.47
2019-05-15T18:07:39.307Z,63.15
2019-05-15T18:10:08.762Z,62.70
2019-05-15T18:12:38.797Z,62.74
2019-05-15T18:15:09.058Z,64.47
2019-05-15T18:17:39.194Z,65.92
2019-05-15T18:20:10.387Z,66.39
2019-05-15T18:22:39.199Z,68.93
2019-05-15T18:25:08.976Z,70.04
2019-05-15T18:27:38.921Z,71.61
2019-05-15T18:30:09.453Z,72.54
2019-05-15T18:32:39.180Z,75.61
2019-05-15T18:35:08.691Z,77.38
2019-05-15T18:37:39.285Z,78.83
2019-05-15T18:40:10.027Z,78.84
2019-05-15T18:42:39.135Z,81.00
2019-05-15T18:45:09.046Z,81.93
2019-05-15T18:47:38.993Z,83.92
2019-05-15T18:50:12.646Z,85.19
2019-05-15T18:52:38.834Z,83.80
2019-05-15T18:55:08.132Z,85.78
2019-05-15T18:57:38.503Z,84.58
2019-05-15T19:00:08.962Z,85.20
2019-05-15T19:02:39.286Z,86.21
2019-05-15T19:05:08.289Z,86.07
2019-05-15T19:07:38.386Z,86.58
2019-05-15T19:10:10.413Z,87.46
2019-05-15T19:12:39.017Z,86.76
2019-05-15T19:15:09.481Z,87.48
2019-05-15T19:17:38.987Z,86.66
2019-05-15T19:20:08.585Z,83.98
2019-05-15T19:22:40.578Z,84.57
2019-05-15T19:25:08.873Z,83.38
2019-05-15T19:27:39.337Z,84.48
2019-05-15T19:30:08.659Z,84.86
2019-05-15T19:32:38.766Z,83.22
2019-05-15T19:35:08.578Z,83.47
2019-05-15T19:37:38.321Z,83.95
2019-05-15T19:40:07.544Z,82.32
2019-05-15T19:42:38.434Z,81.46
2019-05-15T19:45:08.729Z,81.07
2019-05-15T19:47:38.718Z,80.40
2019-05-15T19:50:09.311Z,80.45
2019-05-15T19:52:37.856Z,81.14
2019-05-15T19:55:08.914Z,80.88
2019-05-15T19:57:38.953Z,81.36
2019-05-15T20:00:11.585Z,81.81
2019-05-15T20:02:40.120Z,81.89
2019-05-15T20:05:09.329Z,81.39
2019-05-15T20:07:39.297Z,81.49
2019-05-15T20:10:08.933Z,80.10
2019-05-15T20:12:39.066Z,79.74
2019-05-15T20:15:09.197Z,79.18
2019-05-15T20:17:38.616Z,77.31
2019-05-15T20:20:08.928Z,78.49
2019-05-15T20:22:40.341Z,78.62
2019-05-15T20:25:08.597Z,77.96
2019-05-15T20:27:39.046Z,78.24
2019-05-15T20:30:08.996Z,78.91
2019-05-15T20:32:38.748Z,79.50
2019-05-15T20:35:09.035Z,78.84
2019-05-15T20:37:39.115Z,79.44
2019-05-15T20:40:09.322Z,79.69
2019-05-15T20:42:38.475Z,78.69
2019-05-15T20:45:12.063Z,78.58
2019-05-15T20:47:39.152Z,77.47
2019-05-15T20:50:09.347Z,76.92
2019-05-15T20:52:39.333Z,78.15
2019-05-15T20:55:08.769Z,78.55
2019-05-15T20:57:40.109Z,78.07
2019-05-15T21:00:09.217Z,77.21
2019-05-15T21:02:38.229Z,77.20
2019-05-15T21:05:08.816Z,78.02
2019-05-15T21:07:39.948Z,77.38
2019-05-15T21:10:08.555Z,79.73
2019-05-15T21:12:40.930Z,79.93
2019-05-15T21:15:08.792Z,78.54
2019-05-15T21:17:39.535Z,78.41
2019-05-15T21:20:09.453Z,77.41
2019-05-15T21:22:40.212Z,78.35
2019-05-15T21:25:10.635Z,77.21
2019-05-15T21:27:42.322Z,78.78
2019-05-15T21:30:09.707Z,77.82
2019-05-15T21:32:38.456Z,78.57
2019-05-15T21:35:09.070Z,78.12
2019-05-15T21:37:38.929Z,78.25
2019-05-15T21:40:09.305Z,78.05
2019-05-15T21:42:39.034Z,78.35
2019-05-15T21:45:14.220Z,78.41
2019-05-15T21:47:40.614Z,78.79
2019-05-15T21:50:09.438Z,78.13
2019-05-15T21:52:39.027Z,77.48
2019-05-15T21:55:09.650Z,77.61
2019-05-15T21:57:40.341Z,77.91
2019-05-15T22:00:20.911Z,77.16
2019-05-15T22:02:50.420Z,77.92
2019-05-15T22:05:19.221Z,78.04
2019-05-15T22:07:51.030Z,76.23
2019-05-15T22:10:19.453Z,77.50
2019-05-15T22:12:48.471Z,76.48
2019-05-15T22:15:19.048Z,75.08
2019-05-15T22:17:49.300Z,76.87
2019-05-15T22:20:18.784Z,77.62
2019-05-15T22:22:50.862Z,77.31
2019-05-15T22:25:19.270Z,76.51
2019-05-15T22:27:48.681Z,75.86
2019-05-15T22:30:18.157Z,75.91
2019-05-15T22:32:49.588Z,75.47
2019-05-15T22:35:18.807Z,76.33
2019-05-15T22:37:49.217Z,75.65
2019-05-15T22:40:18.481Z,76.26
2019-05-15T22:42:48.715Z,77.10
2019-05-15T22:45:19.085Z,75.17
2019-05-15T22:47:48.275Z,76.15
2019-05-15T22:50:18.915Z,75.35
2019-05-15T22:52:49.202Z,75.68
2019-05-15T22:55:18.401Z,74.75
2019-05-15T22:57:48.110Z,74.96
2019-05-15T23:00:18.683Z,75.28
2019-05-15T23:02:48.797Z,76.21
2019-05-15T23:05:27.881Z,76.69
2019-05-15T23:07:48.450Z,75.48
2019-05-15T23:10:17.954Z,75.97
2019-05-15T23:12:48.550Z,74.52
2019-05-15T23:15:18.902Z,75.17
2019-05-15T23:17:49.047Z,75.61
2019-05-15T23:20:17.945Z,76.00
2019-05-15T23:22:46.466Z,76.06
2019-05-15T23:25:15.126Z,77.74
2019-05-15T23:27:43.602Z,78.26
2019-05-15T23:30:14.544Z,81.55
2019-05-15T23:32:43.407Z,84.88
2019-05-15T23:35:11.922Z,88.05
2019-05-15T23:37:40.400Z,90.61
2019-05-15T23:40:09.176Z,93.42
2019-05-15T23:42:38.943Z,94.87
2019-05-15T23:45:08.147Z,94.77
2019-05-15T23:47:38.344Z,97.75
2019-05-15T23:50:07.270Z,99.48
2019-05-15T23:52:38.264Z,100.00
2019-05-15T23:55:08.559Z,100.00
2019-05-15T23:57:39.258Z,100.00
